createdAt,value
2018-07-28T00:01:51.793Z,94517.35
2018-07-28T00:04:20.568Z,94513.91
2018-07-28T00:06:49.377Z,94512.07
2018-07-28T00:09:18.128Z,94514.44
2018-07-28T00:11:46.878Z,94516.86
2018-07-28T00:14:15.671Z,94512.06
2018-07-28T00:16:44.442Z,94509.12
2018-07-28T00:19:13.205Z,94513.39
2018-07-28T00:21:41.937Z,94513.15
2018-07-28T00:24:10.701Z,94522.47
2018-07-28T00:26:39.438Z,94514.20
2018-07-28T00:29:08.216Z,94517.13
2018-07-28T00:31:37.020Z,94515.27
2018-07-28T00:34:05.822Z,94513.96
2018-07-28T00:36:34.614Z,94508.63
2018-07-28T00:39:03.579Z,94518.20
2018-07-28T00:41:32.305Z,94513.14
2018-07-28T00:44:01.014Z,94515.27
2018-07-28T00:46:29.773Z,94515.27
2018-07-28T00:48:58.899Z,94509.94
2018-07-28T00:51:27.685Z,94510.20
2018-07-28T00:53:56.379Z,94510.48
2018-07-28T00:56:25.158Z,94504.62
2018-07-28T00:58:53.954Z,94507.82
2018-07-28T01:01:23.078Z,94505.42
2018-07-28T01:03:51.822Z,94501.69
2018-07-28T01:06:20.578Z,94502.75
2018-07-28T01:08:49.504Z,94499.31
2018-07-28T01:11:18.262Z,94497.70
2018-07-28T01:13:47.112Z,94489.98
2018-07-28T01:16:15.886Z,94495.84
2018-07-28T01:18:44.888Z,94491.58
2018-07-28T01:21:13.675Z,94488.92
2018-07-28T01:23:42.397Z,94485.44
2018-07-28T01:26:11.165Z,94486.50
2018-07-28T01:28:39.951Z,94487.03
2018-07-28T01:31:08.718Z,94490.25
2018-07-28T01:33:37.509Z,94487.60
2018-07-28T01:36:06.705Z,94483.06
2018-07-28T01:38:35.499Z,94482.28
2018-07-28T01:41:04.267Z,94478.30
2018-07-28T01:43:33.007Z,94479.88
2018-07-28T01:46:01.777Z,94477.19
2018-07-28T01:48:30.557Z,94473.98
2018-07-28T01:50:59.278Z,94475.32
2018-07-28T01:53:28.068Z,94467.08
2018-07-28T01:55:56.820Z,94466.02
2018-07-28T01:58:25.656Z,94470.81
2018-07-28T02:00:54.500Z,94475.34
2018-07-28T02:03:23.243Z,94475.87
2018-07-28T02:05:51.971Z,94482.50
2018-07-28T02:08:20.722Z,94483.58
2018-07-28T02:10:49.659Z,94485.97
2018-07-28T02:13:18.338Z,94488.63
2018-07-28T02:15:47.051Z,94489.97
2018-07-28T02:18:16.078Z,94488.38
2018-07-28T02:20:44.910Z,94490.50
2018-07-28T02:23:14.021Z,94496.37
2018-07-28T02:25:42.994Z,94491.58
2018-07-28T02:28:11.733Z,94492.89
2018-07-28T02:30:40.510Z,94490.23
2018-07-28T02:33:09.343Z,94491.30
2018-07-28T02:35:38.100Z,94490.75
2018-07-28T02:38:06.919Z,94482.50
2018-07-28T02:40:35.670Z,94488.08
2018-07-28T02:43:04.513Z,94487.03
2018-07-28T02:45:33.290Z,94489.94
2018-07-28T02:48:02.066Z,94487.55
2018-07-28T02:50:30.815Z,94484.88
2018-07-28T02:52:59.572Z,94495.55
2018-07-28T02:55:28.363Z,94492.60
2018-07-28T02:57:57.103Z,94495.53
2018-07-28T03:00:25.952Z,94495.00
2018-07-28T03:02:54.677Z,94497.67
2018-07-28T03:05:23.447Z,94511.48
2018-07-28T03:07:52.194Z,94509.09
2018-07-28T03:10:20.959Z,94507.47
2018-07-28T03:12:49.782Z,94509.36
2018-07-28T03:15:35.680Z,94511.47
2018-07-28T03:18:06.198Z,94511.22
2018-07-28T03:20:35.033Z,94511.20
2018-07-28T03:23:04.398Z,94521.31
2018-07-28T03:25:33.174Z,94526.09
2018-07-28T03:28:01.942Z,94517.05
2018-07-28T03:30:30.825Z,94520.25
2018-07-28T03:32:59.601Z,94518.38
2018-07-28T03:35:28.283Z,94518.11
2018-07-28T03:37:57.017Z,94516.27
2018-07-28T03:40:25.849Z,94509.89
2018-07-28T03:42:54.738Z,94522.66
2018-07-28T03:45:23.573Z,94515.73
2018-07-28T03:47:52.350Z,94514.69
2018-07-28T03:50:21.094Z,94511.24
2018-07-28T03:52:49.870Z,94509.37
2018-07-28T03:55:18.670Z,94506.98
2018-07-28T03:57:47.430Z,94508.30
2018-07-28T04:00:16.260Z,94501.38
2018-07-28T04:02:45.459Z,94501.15
2018-07-28T04:05:14.252Z,94506.46
2018-07-28T04:07:43.075Z,94503.81
2018-07-28T04:10:11.841Z,94505.40
2018-07-28T04:12:40.699Z,94510.18
2018-07-28T04:15:12.090Z,94510.44
2018-07-28T04:17:46.341Z,94505.69
2018-07-28T04:20:15.522Z,94505.16
2018-07-28T04:22:44.266Z,94508.86
2018-07-28T04:25:13.494Z,94508.34
2018-07-28T04:27:43.426Z,94512.38
2018-07-28T04:30:14.194Z,94515.30
2018-07-28T04:32:45.338Z,94517.41
2018-07-28T04:35:14.458Z,94514.20
2018-07-28T04:37:43.336Z,94520.61
2018-07-28T04:40:36.426Z,94525.39
2018-07-28T04:43:05.237Z,94524.32
2018-07-28T04:45:34.185Z,94524.30
2018-07-28T04:48:03.062Z,94526.97
2018-07-28T04:50:31.849Z,94528.81
2018-07-28T04:53:03.711Z,94525.62
2018-07-28T04:55:32.512Z,94525.62
2018-07-28T04:58:01.407Z,94522.61
2018-07-28T05:00:30.237Z,94523.06
2018-07-28T05:02:58.973Z,94526.92
2018-07-28T05:05:27.696Z,94523.10
2018-07-28T05:07:56.445Z,94526.92
2018-07-28T05:10:25.576Z,94524.12
2018-07-28T05:12:54.951Z,94519.75
2018-07-28T05:15:23.762Z,94519.28
2018-07-28T05:17:52.518Z,94525.04
2018-07-28T05:20:21.291Z,94522.92
2018-07-28T05:22:50.025Z,94528.77
2018-07-28T05:25:18.807Z,94531.16
2018-07-28T05:27:47.601Z,94536.25
2018-07-28T05:30:16.494Z,94540.30
2018-07-28T05:32:45.289Z,94540.28
2018-07-28T05:35:14.016Z,94538.63
2018-07-28T05:37:42.818Z,94540.09
2018-07-28T05:40:11.662Z,94535.52
2018-07-28T05:42:40.497Z,94544.75
2018-07-28T05:45:09.270Z,94546.94
2018-07-28T05:47:38.085Z,94544.39
2018-07-28T05:50:08.168Z,94551.95
2018-07-28T05:52:38.483Z,94549.80
2018-07-28T05:55:07.375Z,94550.11
2018-07-28T05:57:36.690Z,94544.03
2018-07-28T06:00:06.698Z,94558.77
2018-07-28T06:02:35.659Z,94562.16
2018-07-28T06:05:05.235Z,94557.64
2018-07-28T06:07:33.985Z,94546.73
2018-07-28T06:10:02.846Z,94557.06
2018-07-28T06:12:31.643Z,94556.62
2018-07-28T06:15:00.418Z,94557.75
2018-07-28T06:17:29.205Z,94548.23
2018-07-28T06:19:58.455Z,94547.63
2018-07-28T06:22:27.274Z,94543.28
2018-07-28T06:24:56.118Z,94544.23
2018-07-28T06:27:24.937Z,94546.66
2018-07-28T06:29:53.753Z,94546.27
2018-07-28T06:32:22.556Z,94539.57
2018-07-28T06:34:51.740Z,94549.30
2018-07-28T06:37:20.569Z,94542.35
2018-07-28T06:39:49.294Z,94546.27
2018-07-28T06:42:18.046Z,94550.14
2018-07-28T06:44:47.110Z,94542.17
2018-07-28T06:47:15.926Z,94548.77
2018-07-28T06:49:44.838Z,94545.93
2018-07-28T06:52:13.588Z,94546.80
2018-07-28T06:54:42.372Z,94538.84
2018-07-28T06:57:11.112Z,94540.98
2018-07-28T06:59:40.287Z,94538.51
2018-07-28T07:02:10.195Z,94536.05
2018-07-28T07:04:39.049Z,94534.78
2018-07-28T07:07:08.293Z,94531.56
2018-07-28T07:09:37.053Z,94536.41
2018-07-28T07:12:06.309Z,94532.10
2018-07-28T07:14:35.130Z,94528.44
2018-07-28T07:17:04.046Z,94522.64
2018-07-28T07:19:32.858Z,94530.14
2018-07-28T07:22:01.568Z,94528.28
2018-07-28T07:24:30.335Z,94529.26
2018-07-28T07:26:59.100Z,94527.78
2018-07-28T07:29:27.886Z,94529.36
2018-07-28T07:31:56.647Z,94523.75
2018-07-28T07:34:25.450Z,94528.70
2018-07-28T07:36:54.341Z,94523.45
2018-07-28T07:39:23.122Z,94520.85
2018-07-28T07:41:51.879Z,94525.16
2018-07-28T07:44:20.654Z,94526.20
2018-07-28T07:46:49.430Z,94519.42
2018-07-28T07:49:19.105Z,94533.94
2018-07-28T07:51:47.835Z,94523.38
2018-07-28T07:54:16.630Z,94528.53
2018-07-28T07:56:45.398Z,94522.41
2018-07-28T07:59:14.318Z,94518.88
2018-07-28T08:01:43.071Z,94522.30
2018-07-28T08:04:11.838Z,94516.56
2018-07-28T08:06:40.607Z,94513.61
2018-07-28T08:09:09.746Z,94515.20
2018-07-28T08:11:38.526Z,94514.63
2018-07-28T08:14:07.737Z,94515.46
2018-07-28T08:16:36.503Z,94510.00
2018-07-28T08:19:05.287Z,94512.80
2018-07-28T08:21:34.069Z,94518.75
2018-07-28T08:24:02.950Z,94517.38
2018-07-28T08:26:31.720Z,94509.94
2018-07-28T08:29:00.963Z,94512.95
2018-07-28T08:31:29.762Z,94511.88
2018-07-28T08:33:58.533Z,94520.86
2018-07-28T08:36:27.358Z,94513.06
2018-07-28T08:38:56.126Z,94521.15
2018-07-28T08:41:24.878Z,94514.70
2018-07-28T08:43:53.617Z,94511.43
2018-07-28T08:46:22.513Z,94509.12
2018-07-28T08:48:51.476Z,94502.62
2018-07-28T08:51:20.425Z,94508.14
2018-07-28T08:53:49.166Z,94496.51
2018-07-28T08:56:17.934Z,94496.77
2018-07-28T08:58:46.770Z,94507.52
2018-07-28T09:01:15.898Z,94493.78
2018-07-28T09:03:44.673Z,94494.94
2018-07-28T09:06:13.423Z,94490.08
2018-07-28T09:08:42.185Z,94482.34
2018-07-28T09:11:10.906Z,94486.00
2018-07-28T09:13:39.693Z,94473.83
2018-07-28T09:16:08.686Z,94479.40
2018-07-28T09:18:37.565Z,94477.20
2018-07-28T09:21:07.051Z,94472.59
2018-07-28T09:23:36.280Z,94467.12
2018-07-28T09:26:05.249Z,94463.48
2018-07-28T09:28:34.031Z,94464.48
2018-07-28T09:31:03.162Z,94459.25
2018-07-28T09:33:32.331Z,94464.28
2018-07-28T09:36:01.137Z,94457.32
2018-07-28T09:38:29.917Z,94460.59
2018-07-28T09:40:58.693Z,94463.91
2018-07-28T09:43:27.481Z,94451.78
2018-07-28T09:45:56.252Z,94445.95
2018-07-28T09:48:25.015Z,94446.52
2018-07-28T09:50:53.847Z,94444.08
2018-07-28T09:53:22.639Z,94448.95
2018-07-28T09:55:51.389Z,94441.39
2018-07-28T09:58:20.142Z,94433.95
2018-07-28T10:00:54.203Z,94435.83
2018-07-28T10:03:22.968Z,94435.44
2018-07-28T10:05:51.725Z,94433.05
2018-07-28T10:08:20.509Z,94423.84
2018-07-28T10:10:49.297Z,94425.50
2018-07-28T10:13:18.066Z,94419.98
2018-07-28T10:15:46.848Z,94416.50
2018-07-28T10:18:15.565Z,94421.81
2018-07-28T10:20:44.322Z,94420.17
2018-07-28T10:23:13.154Z,94405.20
2018-07-28T10:25:41.966Z,94415.81
2018-07-28T10:28:10.702Z,94408.94
2018-07-28T10:30:39.436Z,94400.66
2018-07-28T10:33:08.226Z,94400.70
2018-07-28T10:35:37.098Z,94396.52
2018-07-28T10:38:06.330Z,94389.28
2018-07-28T10:40:35.103Z,94398.76
2018-07-28T10:43:03.974Z,94381.67
2018-07-28T10:45:32.762Z,94384.16
2018-07-28T10:48:01.657Z,94391.20
2018-07-28T10:50:30.406Z,94391.69
2018-07-28T10:52:59.145Z,94388.84
2018-07-28T10:55:28.202Z,94385.69
2018-07-28T10:57:57.609Z,94392.72
2018-07-28T11:00:26.494Z,94390.31
2018-07-28T11:02:55.541Z,94388.41
2018-07-28T11:05:24.266Z,94379.80
2018-07-28T11:07:53.089Z,94386.18
2018-07-28T11:10:21.878Z,94383.98
2018-07-28T11:12:51.021Z,94382.52
2018-07-28T11:15:19.812Z,94371.27
2018-07-28T11:17:48.646Z,94382.23
2018-07-28T11:20:17.565Z,94376.77
2018-07-28T11:22:46.330Z,94370.59
2018-07-28T11:25:15.185Z,94367.56
2018-07-28T11:27:44.090Z,94370.98
2018-07-28T11:30:12.940Z,94366.80
2018-07-28T11:33:51.154Z,94360.77
2018-07-28T11:36:31.644Z,94363.36
2018-07-28T11:39:11.928Z,94356.34
2018-07-28T11:41:51.864Z,94347.16
2018-07-28T11:44:31.816Z,94345.44
2018-07-28T11:47:00.585Z,94346.29
2018-07-28T11:49:29.400Z,94356.17
2018-07-28T11:51:58.157Z,94352.75
2018-07-28T11:54:26.922Z,94349.66
2018-07-28T11:56:55.672Z,94346.06
2018-07-28T11:59:24.418Z,94339.34
2018-07-28T12:01:53.466Z,94342.22
2018-07-28T12:04:22.244Z,94339.70
2018-07-28T12:06:50.958Z,94338.77
2018-07-28T12:09:19.721Z,94337.73
2018-07-28T12:11:48.508Z,94343.91
2018-07-28T12:14:17.255Z,94332.59
2018-07-28T12:16:47.005Z,94336.22
2018-07-28T12:19:16.661Z,94333.98
2018-07-28T12:21:45.396Z,94330.18
2018-07-28T12:24:14.427Z,94340.28
2018-07-28T12:26:43.577Z,94329.19
2018-07-28T12:29:12.305Z,94334.02
2018-07-28T12:31:41.097Z,94329.00
2018-07-28T12:34:09.822Z,94335.16
2018-07-28T12:36:38.601Z,94331.03
2018-07-28T12:39:09.282Z,94327.64
2018-07-28T12:41:38.000Z,94326.68
2018-07-28T12:44:06.780Z,94326.10
2018-07-28T12:46:35.516Z,94318.89
2018-07-28T12:49:04.294Z,94325.55
2018-07-28T12:51:33.454Z,94321.66
2018-07-28T12:54:02.297Z,94322.87
2018-07-28T12:56:31.138Z,94320.80
2018-07-28T12:59:00.003Z,94326.23
2018-07-28T13:01:28.800Z,94328.02
2018-07-28T13:03:57.608Z,94330.70
2018-07-28T13:06:26.883Z,94323.09
2018-07-28T13:08:55.749Z,94320.84
2018-07-28T13:11:24.561Z,94317.28
2018-07-28T13:13:53.362Z,94325.23
2018-07-28T13:16:22.229Z,94321.64
2018-07-28T13:18:51.009Z,94321.64
2018-07-28T13:21:19.797Z,94322.98
2018-07-28T13:23:48.547Z,94320.16
2018-07-28T13:26:17.473Z,94317.01
2018-07-28T13:28:46.310Z,94323.27
2018-07-28T13:31:15.079Z,94329.33
2018-07-28T13:33:43.838Z,94331.65
2018-07-28T13:36:12.669Z,94333.45
2018-07-28T13:38:41.548Z,94328.75
2018-07-28T13:41:10.293Z,94334.67
2018-07-28T13:43:39.093Z,94336.36
2018-07-28T13:46:07.933Z,94345.55
2018-07-28T13:48:36.785Z,94340.88
2018-07-28T13:51:05.561Z,94334.41
2018-07-28T13:53:34.308Z,94346.20
2018-07-28T13:56:03.174Z,94349.09
2018-07-28T13:58:31.917Z,94357.59
2018-07-28T14:01:01.228Z,94351.45
2018-07-28T14:03:30.026Z,94351.83
2018-07-28T14:05:58.839Z,94354.11
2018-07-28T14:08:27.747Z,94358.77
2018-07-28T14:10:56.556Z,94358.97
2018-07-28T14:13:25.307Z,94352.59
2018-07-28T14:15:54.122Z,94358.31
2018-07-28T14:18:23.027Z,94351.72
2018-07-28T14:20:51.870Z,94357.41
2018-07-28T14:23:20.674Z,94353.24
2018-07-28T14:25:49.921Z,94352.13
2018-07-28T14:28:18.779Z,94353.23
2018-07-28T14:30:47.593Z,94359.55
2018-07-28T14:33:16.325Z,94349.20
2018-07-28T14:35:45.470Z,94348.17
2018-07-28T14:38:14.222Z,94347.33
2018-07-28T14:40:43.056Z,94348.36
2018-07-28T14:43:11.814Z,94350.73
2018-07-28T14:45:41.391Z,94354.77
2018-07-28T14:48:10.375Z,94354.34
2018-07-28T14:50:39.139Z,94352.91
2018-07-28T14:53:08.311Z,94355.16
2018-07-28T14:55:37.178Z,94355.58
2018-07-28T14:58:06.551Z,94357.72
2018-07-28T15:00:36.683Z,94365.14
2018-07-28T15:03:11.274Z,94365.37
2018-07-28T15:05:40.206Z,94360.45
2018-07-28T15:08:10.995Z,94359.58
2018-07-28T15:10:39.844Z,94361.37
2018-07-28T15:13:08.688Z,94363.79
2018-07-28T15:15:37.527Z,94356.25
2018-07-28T15:18:06.658Z,94349.62
2018-07-28T15:20:35.490Z,94355.90
2018-07-28T15:23:04.278Z,94364.27
2018-07-28T15:25:33.053Z,94362.59
2018-07-28T15:28:02.551Z,94379.24
2018-07-28T15:30:31.345Z,94359.41
2018-07-28T15:33:00.077Z,94362.61
2018-07-28T15:35:28.870Z,94363.77
2018-07-28T15:37:57.563Z,94353.79
2018-07-28T15:40:26.354Z,94355.39
2018-07-28T15:42:55.208Z,94355.94
2018-07-28T15:45:23.948Z,94369.03
2018-07-28T15:47:52.854Z,94370.84
2018-07-28T15:50:21.740Z,94378.21
2018-07-28T15:52:50.621Z,94372.38
2018-07-28T15:55:20.946Z,94372.64
2018-07-28T15:57:49.698Z,94371.81
2018-07-28T16:00:19.529Z,94379.38
2018-07-28T16:02:49.158Z,94377.56
2018-07-28T16:05:18.200Z,94372.22
2018-07-28T16:07:47.204Z,94379.19
2018-07-28T16:10:16.433Z,94378.03
2018-07-28T16:12:45.193Z,94393.11
2018-07-28T16:15:13.969Z,94393.35
2018-07-28T16:17:42.756Z,94399.78
2018-07-28T16:20:11.641Z,94403.27
2018-07-28T16:22:40.524Z,94399.94
2018-07-28T16:25:09.710Z,94401.30
2018-07-28T16:27:38.987Z,94413.27
2018-07-28T16:30:09.137Z,94406.91
2018-07-28T16:32:37.917Z,94407.16
2018-07-28T16:35:07.945Z,94412.71
2018-07-28T16:37:36.888Z,94408.73
2018-07-28T16:40:05.828Z,94407.89
2018-07-28T16:42:34.873Z,94405.25
2018-07-28T16:45:03.734Z,94410.06
2018-07-28T16:47:32.481Z,94405.45
2018-07-28T16:50:01.298Z,94403.20
2018-07-28T16:52:30.086Z,94408.41
2018-07-28T16:54:59.944Z,94397.95
2018-07-28T16:57:28.724Z,94399.63
2018-07-28T16:59:57.465Z,94405.07
2018-07-28T17:02:26.234Z,94410.02
2018-07-28T17:04:55.021Z,94410.48
2018-07-28T17:07:23.834Z,94413.35
2018-07-28T17:09:52.585Z,94415.80
2018-07-28T17:12:21.346Z,94420.21
2018-07-28T17:14:50.084Z,94416.02
2018-07-28T17:17:18.847Z,94421.09
2018-07-28T17:19:47.729Z,94430.69
2018-07-28T17:22:16.573Z,94432.20
2018-07-28T17:24:45.508Z,94428.73
2018-07-28T17:27:14.242Z,94434.31
2018-07-28T17:29:43.058Z,94434.08
2018-07-28T17:32:12.345Z,94436.97
2018-07-28T17:34:41.756Z,94428.16
2018-07-28T17:37:10.526Z,94434.16
2018-07-28T17:39:39.285Z,94440.34
2018-07-28T17:42:08.073Z,94433.64
2018-07-28T17:44:36.897Z,94442.81
2018-07-28T17:47:05.685Z,94454.81
2018-07-28T17:49:34.468Z,94454.20
2018-07-28T17:52:03.274Z,94462.72
2018-07-28T17:54:32.043Z,94459.33
2018-07-28T17:57:00.886Z,94461.27
2018-07-28T17:59:29.727Z,94460.50
2018-07-28T18:01:58.585Z,94467.50
2018-07-28T18:04:27.473Z,94483.70
2018-07-28T18:06:56.300Z,94482.08
2018-07-28T18:09:25.003Z,94490.77
2018-07-28T18:11:53.827Z,94499.11
2018-07-28T18:14:22.614Z,94505.44
2018-07-28T18:16:51.379Z,94497.53
2018-07-28T18:19:20.268Z,94514.33
2018-07-28T18:21:49.029Z,94532.66
2018-07-28T18:24:17.800Z,94537.88
2018-07-28T18:26:46.670Z,94538.13
2018-07-28T18:29:15.647Z,94534.73
2018-07-28T18:31:44.812Z,94529.14
2018-07-28T18:34:13.645Z,94525.38
2018-07-28T18:36:42.548Z,94530.47
2018-07-28T18:39:12.346Z,94527.78
2018-07-28T18:41:41.540Z,94522.65
2018-07-28T18:44:10.629Z,94517.75
2018-07-28T18:46:40.285Z,94524.36
2018-07-28T18:49:09.017Z,94528.30
2018-07-28T18:51:37.796Z,94537.03
2018-07-28T18:54:07.032Z,94549.65
2018-07-28T18:56:35.848Z,94559.48
2018-07-28T18:59:04.885Z,94568.84
2018-07-28T19:01:33.739Z,94576.66
2018-07-28T19:04:02.548Z,94574.13
2018-07-28T19:06:31.354Z,94574.91
2018-07-28T19:09:05.258Z,94577.00
2018-07-28T19:11:34.056Z,94575.69
2018-07-28T19:14:08.022Z,94580.75
2018-07-28T19:16:36.753Z,94583.43
2018-07-28T19:19:10.728Z,94587.23
2018-07-28T19:21:39.509Z,94591.52
2018-07-28T19:24:08.269Z,94592.30
2018-07-28T19:26:37.036Z,94594.17
2018-07-28T19:29:10.977Z,94588.05
2018-07-28T19:31:40.152Z,94586.77
2018-07-28T19:34:08.941Z,94585.70
2018-07-28T19:36:43.274Z,94584.95
2018-07-28T19:39:21.693Z,94584.44
2018-07-28T19:41:55.879Z,94583.69
2018-07-28T19:44:24.683Z,94581.03
2018-07-28T19:46:53.636Z,94582.91
2018-07-28T19:49:22.409Z,94582.14
2018-07-28T19:51:51.185Z,94582.97
2018-07-28T19:54:20.673Z,94579.80
2018-07-28T19:56:49.462Z,94569.61
2018-07-28T19:59:18.225Z,94571.22
2018-07-28T20:01:47.044Z,94561.06
2018-07-28T20:04:15.789Z,94566.12
2018-07-28T20:06:44.583Z,94568.21
2018-07-28T20:09:13.557Z,94566.08
2018-07-28T20:11:42.329Z,94565.27
2018-07-28T20:14:11.998Z,94572.73
2018-07-28T20:16:40.766Z,94570.59
2018-07-28T20:19:09.609Z,94569.21
2018-07-28T20:21:38.391Z,94565.73
2018-07-28T20:24:07.213Z,94560.94
2018-07-28T20:26:36.058Z,94553.51
2018-07-28T20:29:04.996Z,94549.52
2018-07-28T20:31:33.733Z,94549.23
2018-07-28T20:34:02.518Z,94550.03
2018-07-28T20:36:32.010Z,94536.94
2018-07-28T20:39:00.765Z,94536.67
2018-07-28T20:41:29.545Z,94536.16
2018-07-28T20:43:59.023Z,94536.22
2018-07-28T20:46:29.291Z,94537.56
2018-07-28T20:48:58.157Z,94538.88
2018-07-28T20:51:27.771Z,94537.02
2018-07-28T20:53:56.549Z,94533.80
2018-07-28T20:56:25.310Z,94531.34
2018-07-28T20:58:54.078Z,94539.63
2018-07-28T21:01:23.071Z,94542.31
2018-07-28T21:03:51.858Z,94545.23
2018-07-28T21:06:20.629Z,94559.11
2018-07-28T21:08:49.408Z,94559.45
2018-07-28T21:11:18.164Z,94555.25
2018-07-28T21:13:47.009Z,94560.91
2018-07-28T21:16:15.766Z,94563.58
2018-07-28T21:18:44.526Z,94563.84
2018-07-28T21:21:13.244Z,94566.52
2018-07-28T21:23:42.006Z,94561.25
2018-07-28T21:26:10.783Z,94562.59
2018-07-28T21:28:39.578Z,94564.45
2018-07-28T21:31:08.412Z,94562.06
2018-07-28T21:33:37.217Z,94565.80
2018-07-28T21:38:33.902Z,94573.78
2018-07-28T21:41:02.873Z,94569.78
2018-07-28T21:43:31.643Z,94565.19
2018-07-28T21:46:00.426Z,94567.32
2018-07-28T21:48:29.748Z,94570.31
2018-07-28T21:50:58.494Z,94570.38
2018-07-28T21:53:27.219Z,94573.33
2018-07-28T21:55:55.978Z,94569.86
2018-07-28T21:58:24.730Z,94566.37
2018-07-28T22:01:04.958Z,94564.03
2018-07-28T22:03:34.134Z,94569.41
2018-07-28T22:06:02.963Z,94567.80
2018-07-28T22:08:31.770Z,94571.27
2018-07-28T22:11:00.554Z,94570.70
2018-07-28T22:13:29.750Z,94573.89
2018-07-28T22:15:58.629Z,94575.23
2018-07-28T22:18:27.438Z,94566.43
2018-07-28T22:20:56.353Z,94571.76
2018-07-28T22:23:25.249Z,94566.66
2018-07-28T22:25:54.021Z,94554.59
2018-07-28T22:28:22.835Z,94557.31
2018-07-28T22:30:51.649Z,94556.82
2018-07-28T22:33:20.468Z,94558.73
2018-07-28T22:35:49.274Z,94556.11
2018-07-28T22:38:18.041Z,94551.87
2018-07-28T22:40:46.840Z,94547.84
2018-07-28T22:43:15.634Z,94545.70
2018-07-28T22:45:44.449Z,94537.47
2018-07-28T22:48:13.246Z,94546.31
2018-07-28T22:50:42.053Z,94539.67
2018-07-28T22:53:10.875Z,94534.34
2018-07-28T22:55:39.689Z,94529.27
2018-07-28T22:58:08.488Z,94530.61
2018-07-28T23:00:37.308Z,94537.00
2018-07-28T23:03:06.170Z,94531.97
2018-07-28T23:05:34.958Z,94535.44
2018-07-28T23:08:03.920Z,94535.70
2018-07-28T23:10:33.132Z,94538.11
2018-07-28T23:13:01.974Z,94534.64
2018-07-28T23:15:30.757Z,94529.80
2018-07-28T23:17:59.573Z,94534.30
2018-07-28T23:20:28.371Z,94532.70
2018-07-28T23:22:57.194Z,94530.80
2018-07-28T23:25:25.957Z,94531.33
2018-07-28T23:27:54.852Z,94530.75
2018-07-28T23:30:23.846Z,94536.05
2018-07-28T23:32:52.630Z,94534.19
2018-07-28T23:35:21.795Z,94533.42
2018-07-28T23:37:50.710Z,94531.30
2018-07-28T23:40:19.894Z,94527.83
2018-07-28T23:42:49.077Z,94530.45
2018-07-28T23:45:17.936Z,94540.33
2018-07-28T23:47:46.694Z,94541.66
2018-07-28T23:50:15.892Z,94530.70
2018-07-28T23:52:44.639Z,94533.34
2018-07-28T23:55:13.418Z,94531.20
2018-07-28T23:57:42.577Z,94531.73
